sensor_id;sensor_type;location;lat;lon;timestamp;temperature;humidity
2260;DHT22;333;48.800;9.530;2023-04-03T00:02:02;3.30;99.60
2260;DHT22;333;48.800;9.530;2023-04-03T00:04:29;3.30;99.60
2260;DHT22;333;48.800;9.530;2023-04-03T00:06:56;3.30;99.60
2260;DHT22;333;48.800;9.530;2023-04-03T00:09:23;3.30;99.60
2260;DHT22;333;48.800;9.530;2023-04-03T00:11:50;3.30;99.60
2260;DHT22;333;48.800;9.530;2023-04-03T00:14:17;3.30;99.60
2260;DHT22;333;48.800;9.530;2023-04-03T00:16:44;3.40;99.60
2260;DHT22;333;48.800;9.530;2023-04-03T00:19:13;3.40;99.60
2260;DHT22;333;48.800;9.530;2023-04-03T00:21:40;3.30;99.60
2260;DHT22;333;48.800;9.530;2023-04-03T00:24:07;3.30;99.60
2260;DHT22;333;48.800;9.530;2023-04-03T00:26:34;3.40;99.60
2260;DHT22;333;48.800;9.530;2023-04-03T00:29:01;3.40;99.60
2260;DHT22;333;48.800;9.530;2023-04-03T00:31:28;3.30;99.60
2260;DHT22;333;48.800;9.530;2023-04-03T00:33:55;3.20;99.60
2260;DHT22;333;48.800;9.530;2023-04-03T00:36:23;3.20;99.60
2260;DHT22;333;48.800;9.530;2023-04-03T00:38:51;3.20;99.60
2260;DHT22;333;48.800;9.530;2023-04-03T00:41:18;3.20;99.60
2260;DHT22;333;48.800;9.530;2023-04-03T00:43:45;3.20;99.60
2260;DHT22;333;48.800;9.530;2023-04-03T00:46:12;3.10;99.60
2260;DHT22;333;48.800;9.530;2023-04-03T00:48:42;3.10;99.60
2260;DHT22;333;48.800;9.530;2023-04-03T00:51:12;3.10;99.60
2260;DHT22;333;48.800;9.530;2023-04-03T00:53:44;3.00;99.60
2260;DHT22;333;48.800;9.530;2023-04-03T00:56:15;2.90;99.60
2260;DHT22;333;48.800;9.530;2023-04-03T00:58:47;2.90;99.60
2260;DHT22;333;48.800;9.530;2023-04-03T01:01:18;2.90;99.60
2260;DHT22;333;48.800;9.530;2023-04-03T01:03:46;2.70;99.60
2260;DHT22;333;48.800;9.530;2023-04-03T01:06:16;2.70;99.60
2260;DHT22;333;48.800;9.530;2023-04-03T01:08:45;2.70;99.60
2260;DHT22;333;48.800;9.530;2023-04-03T01:11:14;2.80;99.60
2260;DHT22;333;48.800;9.530;2023-04-03T01:13:41;2.90;99.60
2260;DHT22;333;48.800;9.530;2023-04-03T01:16:09;3.00;99.60
2260;DHT22;333;48.800;9.530;2023-04-03T01:18:38;3.00;99.60
2260;DHT22;333;48.800;9.530;2023-04-03T01:27:07;2.90;99.60
2260;DHT22;333;48.800;9.530;2023-04-03T01:29:36;2.90;99.60
2260;DHT22;333;48.800;9.530;2023-04-03T01:32:05;2.80;99.60
2260;DHT22;333;48.800;9.530;2023-04-03T01:34:32;2.70;99.60
2260;DHT22;333;48.800;9.530;2023-04-03T01:36:59;2.60;99.60
2260;DHT22;333;48.800;9.530;2023-04-03T01:39:26;2.60;99.60
2260;DHT22;333;48.800;9.530;2023-04-03T01:41:53;2.50;99.60
2260;DHT22;333;48.800;9.530;2023-04-03T01:44:20;2.50;99.60
2260;DHT22;333;48.800;9.530;2023-04-03T01:46:47;2.50;99.60
2260;DHT22;333;48.800;9.530;2023-04-03T01:49:16;2.50;99.60
2260;DHT22;333;48.800;9.530;2023-04-03T01:51:43;2.60;99.60
2260;DHT22;333;48.800;9.530;2023-04-03T01:54:10;2.60;99.60
2260;DHT22;333;48.800;9.530;2023-04-03T01:56:37;2.50;99.60
2260;DHT22;333;48.800;9.530;2023-04-03T01:59:04;2.70;99.60
2260;DHT22;333;48.800;9.530;2023-04-03T02:01:31;2.60;99.60
2260;DHT22;333;48.800;9.530;2023-04-03T02:03:58;2.70;99.60
2260;DHT22;333;48.800;9.530;2023-04-03T02:06:27;2.80;99.60
2260;DHT22;333;48.800;9.530;2023-04-03T02:08:54;2.80;99.60
2260;DHT22;333;48.800;9.530;2023-04-03T02:11:21;2.80;99.60
2260;DHT22;333;48.800;9.530;2023-04-03T02:13:48;2.90;99.60
2260;DHT22;333;48.800;9.530;2023-04-03T02:16:15;2.90;99.60
2260;DHT22;333;48.800;9.530;2023-04-03T02:18:42;3.00;99.60
2260;DHT22;333;48.800;9.530;2023-04-03T02:21:09;3.00;99.60
2260;DHT22;333;48.800;9.530;2023-04-03T02:23:37;3.10;99.60
2260;DHT22;333;48.800;9.530;2023-04-03T02:26:07;3.20;99.60
2260;DHT22;333;48.800;9.530;2023-04-03T02:28:34;3.30;99.60
2260;DHT22;333;48.800;9.530;2023-04-03T02:31:01;3.40;99.60
2260;DHT22;333;48.800;9.530;2023-04-03T02:33:28;3.50;99.60
2260;DHT22;333;48.800;9.530;2023-04-03T02:35:56;3.50;99.60
2260;DHT22;333;48.800;9.530;2023-04-03T02:38:24;3.50;99.60
2260;DHT22;333;48.800;9.530;2023-04-03T02:40:53;3.50;99.60
2260;DHT22;333;48.800;9.530;2023-04-03T02:43:21;3.60;99.60
2260;DHT22;333;48.800;9.530;2023-04-03T02:45:48;3.60;99.60
2260;DHT22;333;48.800;9.530;2023-04-03T02:48:15;3.60;99.60
2260;DHT22;333;48.800;9.530;2023-04-03T02:50:42;3.50;99.60
2260;DHT22;333;48.800;9.530;2023-04-03T02:53:09;3.70;99.60
2260;DHT22;333;48.800;9.530;2023-04-03T02:55:36;3.50;99.60
2260;DHT22;333;48.800;9.530;2023-04-03T02:58:04;3.50;99.60
2260;DHT22;333;48.800;9.530;2023-04-03T03:00:32;3.60;99.60
2260;DHT22;333;48.800;9.530;2023-04-03T03:02:59;3.60;99.60
2260;DHT22;333;48.800;9.530;2023-04-03T03:05:26;3.60;99.60
2260;DHT22;333;48.800;9.530;2023-04-03T03:07:53;3.60;99.60
2260;DHT22;333;48.800;9.530;2023-04-03T03:10:20;3.60;99.60
2260;DHT22;333;48.800;9.530;2023-04-03T03:12:48;3.70;99.60
2260;DHT22;333;48.800;9.530;2023-04-03T03:15:17;3.70;99.60
2260;DHT22;333;48.800;9.530;2023-04-03T03:17:44;3.60;99.60
2260;DHT22;333;48.800;9.530;2023-04-03T03:20:13;3.70;99.60
2260;DHT22;333;48.800;9.530;2023-04-03T03:22:40;3.60;99.60
2260;DHT22;333;48.800;9.530;2023-04-03T03:25:08;3.60;99.60
2260;DHT22;333;48.800;9.530;2023-04-03T03:27:35;3.70;99.60
2260;DHT22;333;48.800;9.530;2023-04-03T03:30:03;3.60;99.60
2260;DHT22;333;48.800;9.530;2023-04-03T03:32:32;3.60;99.60
2260;DHT22;333;48.800;9.530;2023-04-03T03:34:59;3.60;99.60
2260;DHT22;333;48.800;9.530;2023-04-03T03:37:26;3.60;99.60
2260;DHT22;333;48.800;9.530;2023-04-03T03:39:53;3.60;99.60
2260;DHT22;333;48.800;9.530;2023-04-03T03:42:20;3.60;99.60
2260;DHT22;333;48.800;9.530;2023-04-03T03:44:47;3.60;99.60
2260;DHT22;333;48.800;9.530;2023-04-03T03:47:14;3.60;99.60
2260;DHT22;333;48.800;9.530;2023-04-03T03:49:43;3.60;99.60
2260;DHT22;333;48.800;9.530;2023-04-03T03:52:10;3.60;99.60
2260;DHT22;333;48.800;9.530;2023-04-03T03:54:37;3.60;99.60
2260;DHT22;333;48.800;9.530;2023-04-03T03:57:04;3.60;99.60
2260;DHT22;333;48.800;9.530;2023-04-03T03:59:31;3.70;99.60
2260;DHT22;333;48.800;9.530;2023-04-03T04:01:58;3.60;99.60
2260;DHT22;333;48.800;9.530;2023-04-03T04:04:25;3.60;99.60
2260;DHT22;333;48.800;9.530;2023-04-03T04:06:54;3.70;99.60
2260;DHT22;333;48.800;9.530;2023-04-03T04:09:21;3.60;99.60
2260;DHT22;333;48.800;9.530;2023-04-03T04:11:48;3.70;99.60
2260;DHT22;333;48.800;9.530;2023-04-03T04:14:15;3.70;99.60
2260;DHT22;333;48.800;9.530;2023-04-03T04:16:42;3.80;99.60
2260;DHT22;333;48.800;9.530;2023-04-03T04:19:09;3.70;99.60
2260;DHT22;333;48.800;9.530;2023-04-03T04:21:36;3.70;99.60
2260;DHT22;333;48.800;9.530;2023-04-03T04:24:05;3.60;99.60
2260;DHT22;333;48.800;9.530;2023-04-03T04:26:32;3.60;99.60
2260;DHT22;333;48.800;9.530;2023-04-03T04:28:59;3.60;99.60
2260;DHT22;333;48.800;9.530;2023-04-03T04:31:26;3.60;99.60
2260;DHT22;333;48.800;9.530;2023-04-03T04:33:53;3.50;99.60
2260;DHT22;333;48.800;9.530;2023-04-03T04:36:20;3.60;99.60
2260;DHT22;333;48.800;9.530;2023-04-03T04:38:47;3.50;99.60
2260;DHT22;333;48.800;9.530;2023-04-03T04:41:19;3.50;99.60
2260;DHT22;333;48.800;9.530;2023-04-03T04:43:48;3.60;99.60
2260;DHT22;333;48.800;9.530;2023-04-03T04:46:15;3.60;99.60
2260;DHT22;333;48.800;9.530;2023-04-03T04:48:42;3.60;99.60
2260;DHT22;333;48.800;9.530;2023-04-03T04:51:09;3.60;99.60
2260;DHT22;333;48.800;9.530;2023-04-03T04:53:37;3.70;99.60
2260;DHT22;333;48.800;9.530;2023-04-03T04:56:04;3.70;99.60
2260;DHT22;333;48.800;9.530;2023-04-03T04:58:33;3.50;99.60
2260;DHT22;333;48.800;9.530;2023-04-03T05:01:00;3.50;99.60
2260;DHT22;333;48.800;9.530;2023-04-03T05:03:28;3.50;99.60
2260;DHT22;333;48.800;9.530;2023-04-03T05:05:55;3.50;99.60
2260;DHT22;333;48.800;9.530;2023-04-03T05:08:22;3.40;99.60
2260;DHT22;333;48.800;9.530;2023-04-03T05:10:49;3.30;99.60
2260;DHT22;333;48.800;9.530;2023-04-03T05:13:16;3.30;99.60
2260;DHT22;333;48.800;9.530;2023-04-03T05:15:45;3.30;99.60
2260;DHT22;333;48.800;9.530;2023-04-03T05:18:12;3.20;99.60
2260;DHT22;333;48.800;9.530;2023-04-03T05:20:40;3.20;99.60
2260;DHT22;333;48.800;9.530;2023-04-03T05:23:09;3.20;99.60
2260;DHT22;333;48.800;9.530;2023-04-03T05:25:37;3.10;99.60
2260;DHT22;333;48.800;9.530;2023-04-03T05:28:05;3.20;99.60
2260;DHT22;333;48.800;9.530;2023-04-03T05:30:32;3.30;99.60
2260;DHT22;333;48.800;9.530;2023-04-03T05:33:01;3.30;99.60
2260;DHT22;333;48.800;9.530;2023-04-03T05:35:28;3.20;99.60
2260;DHT22;333;48.800;9.530;2023-04-03T05:37:55;3.30;99.60
2260;DHT22;333;48.800;9.530;2023-04-03T05:40:22;3.40;99.60
2260;DHT22;333;48.800;9.530;2023-04-03T05:42:49;3.50;99.60
2260;DHT22;333;48.800;9.530;2023-04-03T05:45:17;3.50;99.60
2260;DHT22;333;48.800;9.530;2023-04-03T05:47:44;3.40;99.60
2260;DHT22;333;48.800;9.530;2023-04-03T05:50:12;3.40;99.60
2260;DHT22;333;48.800;9.530;2023-04-03T05:52:42;3.50;99.60
2260;DHT22;333;48.800;9.530;2023-04-03T05:55:10;3.50;99.60
2260;DHT22;333;48.800;9.530;2023-04-03T05:57:37;3.60;99.60
2260;DHT22;333;48.800;9.530;2023-04-03T06:00:05;3.60;99.60
2260;DHT22;333;48.800;9.530;2023-04-03T06:02:32;3.70;99.60
2260;DHT22;333;48.800;9.530;2023-04-03T06:04:59;3.80;99.60
2260;DHT22;333;48.800;9.530;2023-04-03T06:07:28;4.00;99.60
2260;DHT22;333;48.800;9.530;2023-04-03T06:09:56;4.00;99.60
2260;DHT22;333;48.800;9.530;2023-04-03T06:12:23;4.10;99.60
2260;DHT22;333;48.800;9.530;2023-04-03T06:14:50;4.10;99.60
2260;DHT22;333;48.800;9.530;2023-04-03T06:17:18;4.20;99.60
2260;DHT22;333;48.800;9.530;2023-04-03T06:19:46;4.20;99.60
2260;DHT22;333;48.800;9.530;2023-04-03T06:22:13;4.30;99.60
2260;DHT22;333;48.800;9.530;2023-04-03T06:24:42;4.30;99.60
2260;DHT22;333;48.800;9.530;2023-04-03T06:27:10;4.20;99.60
2260;DHT22;333;48.800;9.530;2023-04-03T06:29:37;4.10;99.60
2260;DHT22;333;48.800;9.530;2023-04-03T06:32:05;4.20;99.60
2260;DHT22;333;48.800;9.530;2023-04-03T06:34:32;4.20;99.60
2260;DHT22;333;48.800;9.530;2023-04-03T06:36:59;4.30;99.60
2260;DHT22;333;48.800;9.530;2023-04-03T06:39:26;4.50;99.60
2260;DHT22;333;48.800;9.530;2023-04-03T06:41:55;4.40;99.60
2260;DHT22;333;48.800;9.530;2023-04-03T06:44:22;4.40;99.60
2260;DHT22;333;48.800;9.530;2023-04-03T06:46:49;4.40;99.60
2260;DHT22;333;48.800;9.530;2023-04-03T06:49:17;4.20;99.60
2260;DHT22;333;48.800;9.530;2023-04-03T06:51:44;4.40;99.60
2260;DHT22;333;48.800;9.530;2023-04-03T06:54:12;4.50;99.60
2260;DHT22;333;48.800;9.530;2023-04-03T06:56:40;4.50;99.60
2260;DHT22;333;48.800;9.530;2023-04-03T06:59:09;4.60;99.60
2260;DHT22;333;48.800;9.530;2023-04-03T07:01:37;4.80;99.60
2260;DHT22;333;48.800;9.530;2023-04-03T07:04:04;4.90;99.60
2260;DHT22;333;48.800;9.530;2023-04-03T07:06:31;5.00;99.60
2260;DHT22;333;48.800;9.530;2023-04-03T07:08:59;5.00;99.60
2260;DHT22;333;48.800;9.530;2023-04-03T07:11:27;4.90;99.60
2260;DHT22;333;48.800;9.530;2023-04-03T07:13:54;4.90;99.60
2260;DHT22;333;48.800;9.530;2023-04-03T07:16:23;4.90;99.60
2260;DHT22;333;48.800;9.530;2023-04-03T07:18:50;4.90;99.60
2260;DHT22;333;48.800;9.530;2023-04-03T07:21:17;5.10;99.60
2260;DHT22;333;48.800;9.530;2023-04-03T07:23:44;4.90;99.60
2260;DHT22;333;48.800;9.530;2023-04-03T07:26:11;4.80;99.60
2260;DHT22;333;48.800;9.530;2023-04-03T07:28:39;5.10;99.60
2260;DHT22;333;48.800;9.530;2023-04-03T07:31:10;5.30;99.60
2260;DHT22;333;48.800;9.530;2023-04-03T07:33:41;4.90;99.60
2260;DHT22;333;48.800;9.530;2023-04-03T07:36:09;5.00;99.60
2260;DHT22;333;48.800;9.530;2023-04-03T07:38:37;5.00;99.60
2260;DHT22;333;48.800;9.530;2023-04-03T07:41:04;5.10;99.60
2260;DHT22;333;48.800;9.530;2023-04-03T07:43:32;5.30;99.60
2260;DHT22;333;48.800;9.530;2023-04-03T07:45:59;5.20;99.60
2260;DHT22;333;48.800;9.530;2023-04-03T07:48:26;5.10;99.60
2260;DHT22;333;48.800;9.530;2023-04-03T07:50:59;5.30;99.60
2260;DHT22;333;48.800;9.530;2023-04-03T07:53:26;5.30;99.60
2260;DHT22;333;48.800;9.530;2023-04-03T07:55:54;5.40;99.60
2260;DHT22;333;48.800;9.530;2023-04-03T07:58:22;5.70;99.60
2260;DHT22;333;48.800;9.530;2023-04-03T08:00:49;5.80;99.60
2260;DHT22;333;48.800;9.530;2023-04-03T08:03:16;6.00;99.60
2260;DHT22;333;48.800;9.530;2023-04-03T08:05:46;6.00;99.60
2260;DHT22;333;48.800;9.530;2023-04-03T08:08:16;6.00;99.60
2260;DHT22;333;48.800;9.530;2023-04-03T08:10:44;6.10;99.60
2260;DHT22;333;48.800;9.530;2023-04-03T08:13:14;6.00;99.60
2260;DHT22;333;48.800;9.530;2023-04-03T08:15:41;6.10;99.60
2260;DHT22;333;48.800;9.530;2023-04-03T08:18:08;6.20;99.60
2260;DHT22;333;48.800;9.530;2023-04-03T08:20:37;6.20;99.60
2260;DHT22;333;48.800;9.530;2023-04-03T08:23:05;6.30;99.60
2260;DHT22;333;48.800;9.530;2023-04-03T08:25:37;6.20;99.60
2260;DHT22;333;48.800;9.530;2023-04-03T08:28:04;6.50;99.60
2260;DHT22;333;48.800;9.530;2023-04-03T08:30:32;6.70;99.60
2260;DHT22;333;48.800;9.530;2023-04-03T08:33:00;6.60;99.60
2260;DHT22;333;48.800;9.530;2023-04-03T08:35:27;6.50;99.60
2260;DHT22;333;48.800;9.530;2023-04-03T08:37:54;6.70;99.60
2260;DHT22;333;48.800;9.530;2023-04-03T08:40:22;6.50;99.60
2260;DHT22;333;48.800;9.530;2023-04-03T08:43:00;6.30;99.60
2260;DHT22;333;48.800;9.530;2023-04-03T08:45:40;6.60;99.60
2260;DHT22;333;48.800;9.530;2023-04-03T08:48:12;6.80;99.60
2260;DHT22;333;48.800;9.530;2023-04-03T08:50:44;6.90;99.60
2260;DHT22;333;48.800;9.530;2023-04-03T08:53:15;6.60;99.60
2260;DHT22;333;48.800;9.530;2023-04-03T08:55:43;6.60;99.60
2260;DHT22;333;48.800;9.530;2023-04-03T08:58:16;6.80;99.60
2260;DHT22;333;48.800;9.530;2023-04-03T09:00:46;7.30;99.60
2260;DHT22;333;48.800;9.530;2023-04-03T09:03:16;6.90;99.60
2260;DHT22;333;48.800;9.530;2023-04-03T09:05:46;6.80;99.60
2260;DHT22;333;48.800;9.530;2023-04-03T09:08:21;6.60;99.60
2260;DHT22;333;48.800;9.530;2023-04-03T09:10:49;6.50;99.60
2260;DHT22;333;48.800;9.530;2023-04-03T09:13:26;6.80;99.60
2260;DHT22;333;48.800;9.530;2023-04-03T09:15:54;7.00;99.60
2260;DHT22;333;48.800;9.530;2023-04-03T09:18:25;6.90;99.60
2260;DHT22;333;48.800;9.530;2023-04-03T09:20:59;7.00;99.60
2260;DHT22;333;48.800;9.530;2023-04-03T09:23:33;7.00;99.60
2260;DHT22;333;48.800;9.530;2023-04-03T09:26:08;7.00;99.60
2260;DHT22;333;48.800;9.530;2023-04-03T09:28:38;7.00;99.60
2260;DHT22;333;48.800;9.530;2023-04-03T09:31:17;6.70;99.60
2260;DHT22;333;48.800;9.530;2023-04-03T09:33:45;6.80;99.60
2260;DHT22;333;48.800;9.530;2023-04-03T09:36:12;7.10;99.60
2260;DHT22;333;48.800;9.530;2023-04-03T09:38:40;7.70;99.60
2260;DHT22;333;48.800;9.530;2023-04-03T09:41:16;8.00;99.60
2260;DHT22;333;48.800;9.530;2023-04-03T09:43:53;7.70;99.60
2260;DHT22;333;48.800;9.530;2023-04-03T09:46:30;7.40;98.80
2260;DHT22;333;48.800;9.530;2023-04-03T09:48:59;7.30;99.60
2260;DHT22;333;48.800;9.530;2023-04-03T09:51:27;7.10;99.40
2260;DHT22;333;48.800;9.530;2023-04-03T09:53:55;6.80;99.60
2260;DHT22;333;48.800;9.530;2023-04-03T09:56:24;6.70;99.60
2260;DHT22;333;48.800;9.530;2023-04-03T09:59:08;6.80;99.60
2260;DHT22;333;48.800;9.530;2023-04-03T10:01:36;6.80;99.60
2260;DHT22;333;48.800;9.530;2023-04-03T10:04:09;6.80;99.60
2260;DHT22;333;48.800;9.530;2023-04-03T10:06:38;6.60;99.60
2260;DHT22;333;48.800;9.530;2023-04-03T10:09:16;6.60;99.60
2260;DHT22;333;48.800;9.530;2023-04-03T10:11:58;6.80;99.60
2260;DHT22;333;48.800;9.530;2023-04-03T10:14:28;6.70;99.60
2260;DHT22;333;48.800;9.530;2023-04-03T10:17:03;6.50;99.60
2260;DHT22;333;48.800;9.530;2023-04-03T10:19:39;6.70;99.60
2260;DHT22;333;48.800;9.530;2023-04-03T10:22:16;6.70;99.20
2260;DHT22;333;48.800;9.530;2023-04-03T10:24:57;6.70;99.60
2260;DHT22;333;48.800;9.530;2023-04-03T10:27:38;7.20;99.00
2260;DHT22;333;48.800;9.530;2023-04-03T10:30:20;7.30;98.60
2260;DHT22;333;48.800;9.530;2023-04-03T10:33:07;7.00;97.80
2260;DHT22;333;48.800;9.530;2023-04-03T10:35:43;6.80;97.30
2260;DHT22;333;48.800;9.530;2023-04-03T10:38:17;6.50;97.30
2260;DHT22;333;48.800;9.530;2023-04-03T10:40:52;6.40;97.90
2260;DHT22;333;48.800;9.530;2023-04-03T10:43:27;6.60;97.50
2260;DHT22;333;48.800;9.530;2023-04-03T10:46:02;6.70;97.00
2260;DHT22;333;48.800;9.530;2023-04-03T10:48:44;7.10;97.10
2260;DHT22;333;48.800;9.530;2023-04-03T10:51:25;7.30;95.60
2260;DHT22;333;48.800;9.530;2023-04-03T10:53:57;7.20;92.10
2260;DHT22;333;48.800;9.530;2023-04-03T10:56:31;6.90;90.60
2260;DHT22;333;48.800;9.530;2023-04-03T10:59:13;7.00;91.00
2260;DHT22;333;48.800;9.530;2023-04-03T11:01:46;7.10;92.00
2260;DHT22;333;48.800;9.530;2023-04-03T11:04:16;7.30;89.20
2260;DHT22;333;48.800;9.530;2023-04-03T11:06:47;7.50;90.10
2260;DHT22;333;48.800;9.530;2023-04-03T11:09:21;7.80;89.80
2260;DHT22;333;48.800;9.530;2023-04-03T11:11:53;7.90;89.20
2260;DHT22;333;48.800;9.530;2023-04-03T11:14:26;7.60;89.30
2260;DHT22;333;48.800;9.530;2023-04-03T11:17:05;7.40;91.40
2260;DHT22;333;48.800;9.530;2023-04-03T11:19:35;7.20;90.30
2260;DHT22;333;48.800;9.530;2023-04-03T11:22:10;6.80;91.00
2260;DHT22;333;48.800;9.530;2023-04-03T11:24:40;6.60;91.90
2260;DHT22;333;48.800;9.530;2023-04-03T11:27:12;6.80;91.50
2260;DHT22;333;48.800;9.530;2023-04-03T11:29:44;7.00;92.30
2260;DHT22;333;48.800;9.530;2023-04-03T11:32:29;7.30;91.30
2260;DHT22;333;48.800;9.530;2023-04-03T11:35:01;7.00;89.30
2260;DHT22;333;48.800;9.530;2023-04-03T11:37:33;7.30;90.40
2260;DHT22;333;48.800;9.530;2023-04-03T11:40:04;7.30;90.20
2260;DHT22;333;48.800;9.530;2023-04-03T11:42:36;7.20;90.60
2260;DHT22;333;48.800;9.530;2023-04-03T11:45:29;7.10;92.10
2260;DHT22;333;48.800;9.530;2023-04-03T11:48:00;7.20;91.90
2260;DHT22;333;48.800;9.530;2023-04-03T11:50:42;7.30;92.00
2260;DHT22;333;48.800;9.530;2023-04-03T11:53:32;7.20;90.30
2260;DHT22;333;48.800;9.530;2023-04-03T11:56:31;7.10;91.00
2260;DHT22;333;48.800;9.530;2023-04-03T11:59:23;7.50;89.70
2260;DHT22;333;48.800;9.530;2023-04-03T12:01:50;7.90;88.50
2260;DHT22;333;48.800;9.530;2023-04-03T12:04:21;7.80;90.30
2260;DHT22;333;48.800;9.530;2023-04-03T12:07:13;8.00;91.80
2260;DHT22;333;48.800;9.530;2023-04-03T12:10:16;7.70;91.80
2260;DHT22;333;48.800;9.530;2023-04-03T12:12:43;7.40;92.30
2260;DHT22;333;48.800;9.530;2023-04-03T12:15:50;7.50;93.00
2260;DHT22;333;48.800;9.530;2023-04-03T12:18:42;7.30;92.00
2260;DHT22;333;48.800;9.530;2023-04-03T12:21:11;7.60;92.20
2260;DHT22;333;48.800;9.530;2023-04-03T12:23:58;8.10;91.80
2260;DHT22;333;48.800;9.530;2023-04-03T12:26:28;8.60;90.10
2260;DHT22;333;48.800;9.530;2023-04-03T12:28:57;8.20;89.40
2260;DHT22;333;48.800;9.530;2023-04-03T12:31:25;8.30;88.70
2260;DHT22;333;48.800;9.530;2023-04-03T12:34:09;8.20;88.00
2260;DHT22;333;48.800;9.530;2023-04-03T12:36:46;7.80;89.10
2260;DHT22;333;48.800;9.530;2023-04-03T12:39:42;7.60;90.30
2260;DHT22;333;48.800;9.530;2023-04-03T12:42:22;7.40;92.40
2260;DHT22;333;48.800;9.530;2023-04-03T12:44:56;7.80;91.20
2260;DHT22;333;48.800;9.530;2023-04-03T12:47:29;7.90;91.10
2260;DHT22;333;48.800;9.530;2023-04-03T12:49:59;8.30;87.90
2260;DHT22;333;48.800;9.530;2023-04-03T12:52:35;7.80;86.40
2260;DHT22;333;48.800;9.530;2023-04-03T12:55:08;7.60;86.20
2260;DHT22;333;48.800;9.530;2023-04-03T12:57:40;8.00;87.60
2260;DHT22;333;48.800;9.530;2023-04-03T13:00:22;8.20;87.00
2260;DHT22;333;48.800;9.530;2023-04-03T13:02:53;8.30;85.50
2260;DHT22;333;48.800;9.530;2023-04-03T13:05:21;8.30;86.80
2260;DHT22;333;48.800;9.530;2023-04-03T13:07:54;7.80;87.50
2260;DHT22;333;48.800;9.530;2023-04-03T13:10:22;7.70;87.30
2260;DHT22;333;48.800;9.530;2023-04-03T13:12:51;7.90;86.20
2260;DHT22;333;48.800;9.530;2023-04-03T13:15:20;8.10;83.70
2260;DHT22;333;48.800;9.530;2023-04-03T13:17:48;8.30;84.30
2260;DHT22;333;48.800;9.530;2023-04-03T13:20:21;8.40;85.10
2260;DHT22;333;48.800;9.530;2023-04-03T13:22:56;8.80;85.30
2260;DHT22;333;48.800;9.530;2023-04-03T13:25:26;8.70;86.20
2260;DHT22;333;48.800;9.530;2023-04-03T13:27:54;8.70;87.90
2260;DHT22;333;48.800;9.530;2023-04-03T13:30:26;8.40;86.90
2260;DHT22;333;48.800;9.530;2023-04-03T13:32:55;7.90;87.60
2260;DHT22;333;48.800;9.530;2023-04-03T13:35:35;7.60;87.30
2260;DHT22;333;48.800;9.530;2023-04-03T13:38:07;7.80;87.70
2260;DHT22;333;48.800;9.530;2023-04-03T13:40:49;7.80;88.40
2260;DHT22;333;48.800;9.530;2023-04-03T13:43:19;8.20;88.80
2260;DHT22;333;48.800;9.530;2023-04-03T13:46:02;8.80;87.20
2260;DHT22;333;48.800;9.530;2023-04-03T13:48:36;9.90;83.60
2260;DHT22;333;48.800;9.530;2023-04-03T13:51:05;10.50;80.60
2260;DHT22;333;48.800;9.530;2023-04-03T13:53:42;10.00;79.50
2260;DHT22;333;48.800;9.530;2023-04-03T13:56:18;9.00;81.60
2260;DHT22;333;48.800;9.530;2023-04-03T13:58:55;9.10;83.60
2260;DHT22;333;48.800;9.530;2023-04-03T14:01:24;9.20;81.90
2260;DHT22;333;48.800;9.530;2023-04-03T14:03:55;8.90;81.20
2260;DHT22;333;48.800;9.530;2023-04-03T14:06:23;8.60;81.70
2260;DHT22;333;48.800;9.530;2023-04-03T14:08:52;8.40;81.60
2260;DHT22;333;48.800;9.530;2023-04-03T14:11:21;8.50;84.50
2260;DHT22;333;48.800;9.530;2023-04-03T14:13:50;8.40;85.30
2260;DHT22;333;48.800;9.530;2023-04-03T14:16:19;8.50;86.40
2260;DHT22;333;48.800;9.530;2023-04-03T14:18:49;8.50;85.10
2260;DHT22;333;48.800;9.530;2023-04-03T14:21:19;8.10;84.80
2260;DHT22;333;48.800;9.530;2023-04-03T14:23:47;7.70;86.20
2260;DHT22;333;48.800;9.530;2023-04-03T14:26:17;7.60;86.10
2260;DHT22;333;48.800;9.530;2023-04-03T14:28:45;7.40;86.60
2260;DHT22;333;48.800;9.530;2023-04-03T14:31:13;7.50;87.70
2260;DHT22;333;48.800;9.530;2023-04-03T14:33:40;7.60;87.20
2260;DHT22;333;48.800;9.530;2023-04-03T14:36:13;7.60;86.40
2260;DHT22;333;48.800;9.530;2023-04-03T14:38:41;7.50;86.50
2260;DHT22;333;48.800;9.530;2023-04-03T14:41:10;7.80;86.80
2260;DHT22;333;48.800;9.530;2023-04-03T14:43:40;8.20;88.40
2260;DHT22;333;48.800;9.530;2023-04-03T14:46:12;8.40;86.10
2260;DHT22;333;48.800;9.530;2023-04-03T14:48:40;8.10;86.70
2260;DHT22;333;48.800;9.530;2023-04-03T14:51:08;8.00;87.70
2260;DHT22;333;48.800;9.530;2023-04-03T14:53:36;7.90;87.40
2260;DHT22;333;48.800;9.530;2023-04-03T14:56:09;8.20;87.80
2260;DHT22;333;48.800;9.530;2023-04-03T14:58:37;9.10;85.80
2260;DHT22;333;48.800;9.530;2023-04-03T15:01:06;9.40;84.50
2260;DHT22;333;48.800;9.530;2023-04-03T15:03:33;10.40;83.00
2260;DHT22;333;48.800;9.530;2023-04-03T15:06:00;11.20;80.70
2260;DHT22;333;48.800;9.530;2023-04-03T15:08:27;10.90;79.60
2260;DHT22;333;48.800;9.530;2023-04-03T15:10:56;9.30;79.60
2260;DHT22;333;48.800;9.530;2023-04-03T15:13:24;8.40;81.90
2260;DHT22;333;48.800;9.530;2023-04-03T15:15:52;7.80;83.10
2260;DHT22;333;48.800;9.530;2023-04-03T15:18:22;7.60;84.40
2260;DHT22;333;48.800;9.530;2023-04-03T15:20:51;7.50;85.30
2260;DHT22;333;48.800;9.530;2023-04-03T15:23:19;7.30;85.20
2260;DHT22;333;48.800;9.530;2023-04-03T15:25:47;7.40;85.40
2260;DHT22;333;48.800;9.530;2023-04-03T15:28:19;7.50;85.50
2260;DHT22;333;48.800;9.530;2023-04-03T15:30:48;7.80;86.10
2260;DHT22;333;48.800;9.530;2023-04-03T15:33:16;8.20;84.20
2260;DHT22;333;48.800;9.530;2023-04-03T15:35:45;8.90;85.60
2260;DHT22;333;48.800;9.530;2023-04-03T15:38:12;10.20;81.60
2260;DHT22;333;48.800;9.530;2023-04-03T15:40:39;10.90;78.60
2260;DHT22;333;48.800;9.530;2023-04-03T15:43:06;9.10;80.20
2260;DHT22;333;48.800;9.530;2023-04-03T15:45:34;8.70;81.50
2260;DHT22;333;48.800;9.530;2023-04-03T15:48:02;8.10;82.00
2260;DHT22;333;48.800;9.530;2023-04-03T15:50:30;7.80;82.10
2260;DHT22;333;48.800;9.530;2023-04-03T15:52:59;7.40;82.10
2260;DHT22;333;48.800;9.530;2023-04-03T15:55:30;7.20;82.90
2260;DHT22;333;48.800;9.530;2023-04-03T15:57:57;7.40;82.80
2260;DHT22;333;48.800;9.530;2023-04-03T16:00:25;7.30;82.10
2260;DHT22;333;48.800;9.530;2023-04-03T16:02:54;7.30;83.80
2260;DHT22;333;48.800;9.530;2023-04-03T16:05:23;7.40;83.20
2260;DHT22;333;48.800;9.530;2023-04-03T16:07:50;7.50;82.60
2260;DHT22;333;48.800;9.530;2023-04-03T16:10:19;7.90;84.00
2260;DHT22;333;48.800;9.530;2023-04-03T16:12:46;8.20;81.60
2260;DHT22;333;48.800;9.530;2023-04-03T16:15:13;8.90;80.40
2260;DHT22;333;48.800;9.530;2023-04-03T16:17:40;10.50;78.60
2260;DHT22;333;48.800;9.530;2023-04-03T16:20:09;11.50;75.70
2260;DHT22;333;48.800;9.530;2023-04-03T16:22:37;9.80;77.60
2260;DHT22;333;48.800;9.530;2023-04-03T16:25:05;9.50;78.40
2260;DHT22;333;48.800;9.530;2023-04-03T16:27:34;8.60;80.40
2260;DHT22;333;48.800;9.530;2023-04-03T16:30:02;8.10;81.50
2260;DHT22;333;48.800;9.530;2023-04-03T16:32:30;7.90;82.70
2260;DHT22;333;48.800;9.530;2023-04-03T16:34:58;7.60;82.80
2260;DHT22;333;48.800;9.530;2023-04-03T16:37:25;7.40;83.80
2260;DHT22;333;48.800;9.530;2023-04-03T16:39:52;7.40;84.60
2260;DHT22;333;48.800;9.530;2023-04-03T16:42:19;7.40;85.20
2260;DHT22;333;48.800;9.530;2023-04-03T16:44:48;7.20;84.60
2260;DHT22;333;48.800;9.530;2023-04-03T16:47:15;7.20;85.30
2260;DHT22;333;48.800;9.530;2023-04-03T16:49:45;7.30;85.60
2260;DHT22;333;48.800;9.530;2023-04-03T16:52:12;7.30;84.90
2260;DHT22;333;48.800;9.530;2023-04-03T16:54:40;7.30;86.30
2260;DHT22;333;48.800;9.530;2023-04-03T16:57:08;7.20;84.40
2260;DHT22;333;48.800;9.530;2023-04-03T16:59:35;7.30;84.90